sensor_id;sensor_type;location;lat;lon;timestamp;temperature;humidity
47514;DHT22;33951;51.988;5.910;2023-04-04T04:16:18;2.50;99.90
47514;DHT22;33951;51.988;5.910;2023-04-04T04:18:46;2.50;99.90
47514;DHT22;33951;51.988;5.910;2023-04-04T04:21:35;2.40;99.90
47514;DHT22;33951;51.988;5.910;2023-04-04T04:24:13;2.30;99.90
47514;DHT22;33951;51.988;5.910;2023-04-04T04:26:41;2.40;99.90
47514;DHT22;33951;51.988;5.910;2023-04-04T04:32:18;2.40;99.90
47514;DHT22;33951;51.988;5.910;2023-04-04T04:34:51;2.40;99.90
47514;DHT22;33951;51.988;5.910;2023-04-04T04:37:27;2.30;99.90
47514;DHT22;33951;51.988;5.910;2023-04-04T04:39:53;2.30;99.90
47514;DHT22;33951;51.988;5.910;2023-04-04T04:42:24;2.30;99.90
47514;DHT22;33951;51.988;5.910;2023-04-04T04:44:50;2.30;99.90
47514;DHT22;33951;51.988;5.910;2023-04-04T04:47:21;2.40;99.90
47514;DHT22;33951;51.988;5.910;2023-04-04T04:50:05;2.30;99.90
47514;DHT22;33951;51.988;5.910;2023-04-04T04:52:45;2.30;99.90
47514;DHT22;33951;51.988;5.910;2023-04-04T04:55:19;2.30;99.90
47514;DHT22;33951;51.988;5.910;2023-04-04T05:01:10;2.20;99.90
47514;DHT22;33951;51.988;5.910;2023-04-04T05:03:55;2.20;99.90
47514;DHT22;33951;51.988;5.910;2023-04-04T05:06:30;2.20;99.90
47514;DHT22;33951;51.988;5.910;2023-04-04T05:09:28;2.20;99.90
47514;DHT22;33951;51.988;5.910;2023-04-04T05:12:07;2.20;99.90
47514;DHT22;33951;51.988;5.910;2023-04-04T05:14:39;2.30;99.90
47514;DHT22;33951;51.988;5.910;2023-04-04T05:17:26;2.20;99.90
47514;DHT22;33951;51.988;5.910;2023-04-04T05:20:24;2.20;99.90
47514;DHT22;33951;51.988;5.910;2023-04-04T05:22:53;2.10;99.90
47514;DHT22;33951;51.988;5.910;2023-04-04T05:25:21;2.10;99.90
47514;DHT22;33951;51.988;5.910;2023-04-04T05:27:59;2.10;99.90
47514;DHT22;33951;51.988;5.910;2023-04-04T05:30:28;2.20;99.90
47514;DHT22;33951;51.988;5.910;2023-04-04T05:33:04;2.20;99.90
47514;DHT22;33951;51.988;5.910;2023-04-04T05:35:44;2.10;99.90
47514;DHT22;33951;51.988;5.910;2023-04-04T05:38:28;2.10;99.90
47514;DHT22;33951;51.988;5.910;2023-04-04T05:41:07;2.10;99.90
47514;DHT22;33951;51.988;5.910;2023-04-04T05:43:32;2.10;99.90
47514;DHT22;33951;51.988;5.910;2023-04-04T05:46:08;2.00;99.90
47514;DHT22;33951;51.988;5.910;2023-04-04T05:48:36;1.90;99.90
47514;DHT22;33951;51.988;5.910;2023-04-04T05:51:19;2.00;99.90
47514;DHT22;33951;51.988;5.910;2023-04-04T05:53:49;2.00;99.90
47514;DHT22;33951;51.988;5.910;2023-04-04T05:56:17;2.10;99.90
47514;DHT22;33951;51.988;5.910;2023-04-04T05:58:56;2.10;99.90
47514;DHT22;33951;51.988;5.910;2023-04-04T06:01:30;2.10;99.90
47514;DHT22;33951;51.988;5.910;2023-04-04T06:04:01;2.10;99.90
47514;DHT22;33951;51.988;5.910;2023-04-04T06:06:32;2.20;99.90
47514;DHT22;33951;51.988;5.910;2023-04-04T06:09:10;2.20;99.90
47514;DHT22;33951;51.988;5.910;2023-04-04T06:11:39;2.20;99.90
47514;DHT22;33951;51.988;5.910;2023-04-04T06:14:07;2.20;99.90
47514;DHT22;33951;51.988;5.910;2023-04-04T06:16:43;2.30;99.90
47514;DHT22;33951;51.988;5.910;2023-04-04T06:19:12;2.20;99.90
47514;DHT22;33951;51.988;5.910;2023-04-04T06:21:40;2.40;99.90
47514;DHT22;33951;51.988;5.910;2023-04-04T06:49:19;2.90;99.90
47514;DHT22;33951;51.988;5.910;2023-04-04T07:31:14;4.10;99.90
47514;DHT22;33951;51.988;5.910;2023-04-04T07:36:28;4.40;99.90
47514;DHT22;33951;51.988;5.910;2023-04-04T08:27:26;5.80;99.90
47514;DHT22;33951;51.988;5.910;2023-04-04T08:30:15;5.90;99.90
47514;DHT22;33951;51.988;5.910;2023-04-04T08:33:52;6.00;99.90
47514;DHT22;33951;51.988;5.910;2023-04-04T08:37:06;6.00;99.90
47514;DHT22;33951;51.988;5.910;2023-04-04T08:40:28;6.10;99.90
47514;DHT22;33951;51.988;5.910;2023-04-04T08:43:42;6.10;99.90
47514;DHT22;33951;51.988;5.910;2023-04-04T08:46:50;6.20;99.90
47514;DHT22;33951;51.988;5.910;2023-04-04T08:53:33;6.40;99.90
47514;DHT22;33951;51.988;5.910;2023-04-04T08:56:35;6.40;99.90
47514;DHT22;33951;51.988;5.910;2023-04-04T08:59:06;6.50;99.90
47514;DHT22;33951;51.988;5.910;2023-04-04T09:02:03;6.50;99.90
47514;DHT22;33951;51.988;5.910;2023-04-04T09:04:30;6.60;99.90
47514;DHT22;33951;51.988;5.910;2023-04-04T09:07:41;6.60;99.90
47514;DHT22;33951;51.988;5.910;2023-04-04T09:14:10;7.00;99.90
47514;DHT22;33951;51.988;5.910;2023-04-04T09:17:40;7.20;99.90
47514;DHT22;33951;51.988;5.910;2023-04-04T09:24:18;7.40;99.90
47514;DHT22;33951;51.988;5.910;2023-04-04T09:30:32;7.60;99.90
47514;DHT22;33951;51.988;5.910;2023-04-04T09:33:07;7.70;99.90
47514;DHT22;33951;51.988;5.910;2023-04-04T09:35:42;8.00;99.90
47514;DHT22;33951;51.988;5.910;2023-04-04T09:38:19;8.10;99.90
47514;DHT22;33951;51.988;5.910;2023-04-04T09:40:56;8.20;99.90
47514;DHT22;33951;51.988;5.910;2023-04-04T09:43:35;8.20;99.90
47514;DHT22;33951;51.988;5.910;2023-04-04T09:46:09;8.30;99.90
47514;DHT22;33951;51.988;5.910;2023-04-04T09:48:35;8.50;99.90
47514;DHT22;33951;51.988;5.910;2023-04-04T09:51:10;8.50;99.90
47514;DHT22;33951;51.988;5.910;2023-04-04T09:53:41;8.60;99.90
47514;DHT22;33951;51.988;5.910;2023-04-04T09:56:18;8.70;99.90
47514;DHT22;33951;51.988;5.910;2023-04-04T09:58:49;8.80;99.90
47514;DHT22;33951;51.988;5.910;2023-04-04T10:01:20;9.00;99.90
47514;DHT22;33951;51.988;5.910;2023-04-04T10:04:04;9.00;99.90
47514;DHT22;33951;51.988;5.910;2023-04-04T10:06:30;9.10;99.90
47514;DHT22;33951;51.988;5.910;2023-04-04T10:09:02;9.30;99.90
47514;DHT22;33951;51.988;5.910;2023-04-04T10:11:34;9.50;99.90
47514;DHT22;33951;51.988;5.910;2023-04-04T10:14:01;9.70;99.90
47514;DHT22;33951;51.988;5.910;2023-04-04T10:16:33;9.90;99.40
47514;DHT22;33951;51.988;5.910;2023-04-04T10:19:09;10.00;99.10
47514;DHT22;33951;51.988;5.910;2023-04-04T10:21:47;10.20;98.30
47514;DHT22;33951;51.988;5.910;2023-04-04T10:24:18;10.30;98.90
47514;DHT22;33951;51.988;5.910;2023-04-04T10:26:57;10.60;98.20
47514;DHT22;33951;51.988;5.910;2023-04-04T10:29:24;10.70;98.30
47514;DHT22;33951;51.988;5.910;2023-04-04T10:32:20;11.00;98.20
47514;DHT22;33951;51.988;5.910;2023-04-04T10:37:59;11.40;97.20
47514;DHT22;33951;51.988;5.910;2023-04-04T10:40:30;11.70;98.10
47514;DHT22;33951;51.988;5.910;2023-04-04T10:43:05;11.90;98.00
47514;DHT22;33951;51.988;5.910;2023-04-04T10:46:01;12.00;96.50
47514;DHT22;33951;51.988;5.910;2023-04-04T10:48:32;11.90;96.80
47514;DHT22;33951;51.988;5.910;2023-04-04T10:51:18;12.00;98.70
47514;DHT22;33951;51.988;5.910;2023-04-04T10:53:44;12.40;97.70
47514;DHT22;33951;51.988;5.910;2023-04-04T10:56:21;12.50;96.90
47514;DHT22;33951;51.988;5.910;2023-04-04T10:59:16;12.60;96.50
47514;DHT22;33951;51.988;5.910;2023-04-04T11:01:57;12.80;96.50
47514;DHT22;33951;51.988;5.910;2023-04-04T11:04:46;12.90;96.70
47514;DHT22;33951;51.988;5.910;2023-04-04T11:07:15;13.10;95.60
47514;DHT22;33951;51.988;5.910;2023-04-04T11:09:52;13.30;96.30
47514;DHT22;33951;51.988;5.910;2023-04-04T11:17:49;13.80;96.10
47514;DHT22;33951;51.988;5.910;2023-04-04T11:20:20;14.10;95.80
47514;DHT22;33951;51.988;5.910;2023-04-04T11:23:09;14.00;95.20
47514;DHT22;33951;51.988;5.910;2023-04-04T11:25:56;14.20;94.70
47514;DHT22;33951;51.988;5.910;2023-04-04T11:34:03;14.60;94.20
47514;DHT22;33951;51.988;5.910;2023-04-04T11:42:11;15.10;94.00
47514;DHT22;33951;51.988;5.910;2023-04-04T11:44:42;15.20;93.00
47514;DHT22;33951;51.988;5.910;2023-04-04T11:47:26;15.40;93.50
47514;DHT22;33951;51.988;5.910;2023-04-04T11:49:54;15.50;92.70
47514;DHT22;33951;51.988;5.910;2023-04-04T11:52:20;15.60;92.40
47514;DHT22;33951;51.988;5.910;2023-04-04T11:54:48;15.70;92.60
47514;DHT22;33951;51.988;5.910;2023-04-04T11:57:16;15.80;92.70
47514;DHT22;33951;51.988;5.910;2023-04-04T11:59:44;15.90;91.10
47514;DHT22;33951;51.988;5.910;2023-04-04T12:02:23;15.80;91.60
47514;DHT22;33951;51.988;5.910;2023-04-04T12:04:52;15.90;91.60
47514;DHT22;33951;51.988;5.910;2023-04-04T12:07:18;15.90;91.40
47514;DHT22;33951;51.988;5.910;2023-04-04T12:09:47;16.00;90.20
47514;DHT22;33951;51.988;5.910;2023-04-04T12:12:16;16.00;90.20
47514;DHT22;33951;51.988;5.910;2023-04-04T12:14:42;16.00;89.60
47514;DHT22;33951;51.988;5.910;2023-04-04T12:17:11;15.90;91.80
47514;DHT22;33951;51.988;5.910;2023-04-04T12:19:38;16.00;90.30
47514;DHT22;33951;51.988;5.910;2023-04-04T12:22:06;16.20;91.00
47514;DHT22;33951;51.988;5.910;2023-04-04T12:24:45;16.40;89.50
47514;DHT22;33951;51.988;5.910;2023-04-04T12:27:11;16.50;90.00
47514;DHT22;33951;51.988;5.910;2023-04-04T12:29:40;16.60;90.00
47514;DHT22;33951;51.988;5.910;2023-04-04T12:32:09;16.60;89.70
47514;DHT22;33951;51.988;5.910;2023-04-04T12:34:46;16.60;87.50
47514;DHT22;33951;51.988;5.910;2023-04-04T12:37:36;16.70;89.40
47514;DHT22;33951;51.988;5.910;2023-04-04T12:40:20;16.90;88.20
47514;DHT22;33951;51.988;5.910;2023-04-04T12:42:49;17.20;87.60
47514;DHT22;33951;51.988;5.910;2023-04-04T12:45:28;17.20;85.10
47514;DHT22;33951;51.988;5.910;2023-04-04T12:48:07;17.40;85.10
47514;DHT22;33951;51.988;5.910;2023-04-04T12:50:51;17.40;85.80
47514;DHT22;33951;51.988;5.910;2023-04-04T12:53:30;17.50;85.20
47514;DHT22;33951;51.988;5.910;2023-04-04T12:56:01;17.20;85.00
47514;DHT22;33951;51.988;5.910;2023-04-04T12:58:29;17.20;85.70
47514;DHT22;33951;51.988;5.910;2023-04-04T13:01:01;17.30;87.40
47514;DHT22;33951;51.988;5.910;2023-04-04T13:03:58;17.40;85.50
47514;DHT22;33951;51.988;5.910;2023-04-04T13:09:49;17.60;84.90
47514;DHT22;33951;51.988;5.910;2023-04-04T13:15:05;17.50;83.50
47514;DHT22;33951;51.988;5.910;2023-04-04T13:17:53;17.70;85.10
47514;DHT22;33951;51.988;5.910;2023-04-04T13:20:39;17.60;85.30
47514;DHT22;33951;51.988;5.910;2023-04-04T13:23:05;17.80;85.20
47514;DHT22;33951;51.988;5.910;2023-04-04T13:25:31;17.90;83.50
47514;DHT22;33951;51.988;5.910;2023-04-04T13:34:16;18.40;81.70
47514;DHT22;33951;51.988;5.910;2023-04-04T13:43:23;18.40;80.90
47514;DHT22;33951;51.988;5.910;2023-04-04T13:46:41;18.60;82.20
47514;DHT22;33951;51.988;5.910;2023-04-04T14:21:39;17.50;75.80
47514;DHT22;33951;51.988;5.910;2023-04-04T14:51:07;18.40;75.90
47514;DHT22;33951;51.988;5.910;2023-04-04T14:53:35;18.40;74.00
47514;DHT22;33951;51.988;5.910;2023-04-04T14:56:19;18.40;75.40
47514;DHT22;33951;51.988;5.910;2023-04-04T14:58:50;18.50;74.50
47514;DHT22;33951;51.988;5.910;2023-04-04T15:01:16;18.60;75.40
47514;DHT22;33951;51.988;5.910;2023-04-04T15:03:44;18.30;74.90
47514;DHT22;33951;51.988;5.910;2023-04-04T15:06:13;18.20;73.60
47514;DHT22;33951;51.988;5.910;2023-04-04T15:08:46;18.10;73.00
47514;DHT22;33951;51.988;5.910;2023-04-04T15:11:12;18.00;73.50
47514;DHT22;33951;51.988;5.910;2023-04-04T15:13:40;17.90;74.00
47514;DHT22;33951;51.988;5.910;2023-04-04T15:16:05;17.50;72.30
47514;DHT22;33951;51.988;5.910;2023-04-04T15:18:31;16.90;72.40
47514;DHT22;33951;51.988;5.910;2023-04-04T15:20:59;16.60;71.90
47514;DHT22;33951;51.988;5.910;2023-04-04T15:23:27;16.50;74.10
47514;DHT22;33951;51.988;5.910;2023-04-04T15:25:58;16.60;73.90
47514;DHT22;33951;51.988;5.910;2023-04-04T15:31:14;16.60;73.70
47514;DHT22;33951;51.988;5.910;2023-04-04T15:33:51;16.60;73.00
47514;DHT22;33951;51.988;5.910;2023-04-04T15:36:19;16.70;74.30
47514;DHT22;33951;51.988;5.910;2023-04-04T15:38:49;16.80;73.40
47514;DHT22;33951;51.988;5.910;2023-04-04T15:41:18;16.90;72.10
47514;DHT22;33951;51.988;5.910;2023-04-04T15:43:44;16.90;72.10
47514;DHT22;33951;51.988;5.910;2023-04-04T15:46:13;16.70;72.90
47514;DHT22;33951;51.988;5.910;2023-04-04T15:48:41;16.60;73.20
47514;DHT22;33951;51.988;5.910;2023-04-04T15:51:18;16.60;70.30
47514;DHT22;33951;51.988;5.910;2023-04-04T15:53:59;16.40;71.20
47514;DHT22;33951;51.988;5.910;2023-04-04T15:56:25;16.30;72.60
47514;DHT22;33951;51.988;5.910;2023-04-04T15:58:52;16.10;71.10
47514;DHT22;33951;51.988;5.910;2023-04-04T16:01:21;16.10;72.10
47514;DHT22;33951;51.988;5.910;2023-04-04T16:03:52;16.10;72.80
47514;DHT22;33951;51.988;5.910;2023-04-04T16:06:28;16.00;72.90
47514;DHT22;33951;51.988;5.910;2023-04-04T16:08:59;15.90;73.50
47514;DHT22;33951;51.988;5.910;2023-04-04T16:11:28;15.80;73.60
47514;DHT22;33951;51.988;5.910;2023-04-04T16:13:56;15.60;74.70
47514;DHT22;33951;51.988;5.910;2023-04-04T16:16:21;15.40;74.60
47514;DHT22;33951;51.988;5.910;2023-04-04T16:18:55;15.50;76.00
47514;DHT22;33951;51.988;5.910;2023-04-04T16:21:38;15.40;74.20
47514;DHT22;33951;51.988;5.910;2023-04-04T16:24:30;15.30;75.40
47514;DHT22;33951;51.988;5.910;2023-04-04T16:27:05;15.20;75.50
47514;DHT22;33951;51.988;5.910;2023-04-04T16:29:47;15.10;76.30
47514;DHT22;33951;51.988;5.910;2023-04-04T16:32:13;15.10;76.10
47514;DHT22;33951;51.988;5.910;2023-04-04T16:34:44;15.00;76.40
47514;DHT22;33951;51.988;5.910;2023-04-04T16:37:14;15.00;76.60
47514;DHT22;33951;51.988;5.910;2023-04-04T16:39:44;15.00;76.30
47514;DHT22;33951;51.988;5.910;2023-04-04T16:42:21;14.90;77.50
47514;DHT22;33951;51.988;5.910;2023-04-04T16:44:52;14.80;78.30
47514;DHT22;33951;51.988;5.910;2023-04-04T16:47:23;14.80;78.60
47514;DHT22;33951;51.988;5.910;2023-04-04T16:49:54;14.80;78.40
47514;DHT22;33951;51.988;5.910;2023-04-04T16:52:33;14.60;78.30
47514;DHT22;33951;51.988;5.910;2023-04-04T16:55:01;14.50;78.90
47514;DHT22;33951;51.988;5.910;2023-04-04T16:57:32;14.40;79.70
47514;DHT22;33951;51.988;5.910;2023-04-04T17:00:11;14.30;80.20
47514;DHT22;33951;51.988;5.910;2023-04-04T17:02:44;14.30;80.60
47514;DHT22;33951;51.988;5.910;2023-04-04T17:05:17;14.10;80.50
47514;DHT22;33951;51.988;5.910;2023-04-04T17:07:46;13.90;80.60
47514;DHT22;33951;51.988;5.910;2023-04-04T17:10:17;13.90;81.30
47514;DHT22;33951;51.988;5.910;2023-04-04T17:12:43;13.80;81.60
47514;DHT22;33951;51.988;5.910;2023-04-04T17:15:10;13.60;82.00
47514;DHT22;33951;51.988;5.910;2023-04-04T17:17:38;13.50;82.30
47514;DHT22;33951;51.988;5.910;2023-04-04T17:20:05;13.50;81.90
47514;DHT22;33951;51.988;5.910;2023-04-04T17:22:31;13.40;82.30
47514;DHT22;33951;51.988;5.910;2023-04-04T17:24:59;13.20;82.20
47514;DHT22;33951;51.988;5.910;2023-04-04T17:27:27;13.00;81.70
47514;DHT22;33951;51.988;5.910;2023-04-04T17:29:58;13.00;82.20
47514;DHT22;33951;51.988;5.910;2023-04-04T17:32:26;12.80;82.30
47514;DHT22;33951;51.988;5.910;2023-04-04T17:34:54;12.80;81.90
47514;DHT22;33951;51.988;5.910;2023-04-04T17:37:23;12.80;82.10
47514;DHT22;33951;51.988;5.910;2023-04-04T17:39:58;12.70;82.40
47514;DHT22;33951;51.988;5.910;2023-04-04T17:42:27;12.70;82.90
47514;DHT22;33951;51.988;5.910;2023-04-04T17:45:03;12.50;82.60
47514;DHT22;33951;51.988;5.910;2023-04-04T17:47:44;12.50;82.80
47514;DHT22;33951;51.988;5.910;2023-04-04T17:50:14;12.40;83.80
47514;DHT22;33951;51.988;5.910;2023-04-04T17:52:46;12.20;83.90
47514;DHT22;33951;51.988;5.910;2023-04-04T17:55:28;12.10;84.40
47514;DHT22;33951;51.988;5.910;2023-04-04T17:57:57;12.00;85.00
47514;DHT22;33951;51.988;5.910;2023-04-04T18:00:23;11.90;85.50
47514;DHT22;33951;51.988;5.910;2023-04-04T18:02:51;11.90;85.60
47514;DHT22;33951;51.988;5.910;2023-04-04T18:05:23;11.90;86.20
47514;DHT22;33951;51.988;5.910;2023-04-04T18:07:54;11.80;86.10
47514;DHT22;33951;51.988;5.910;2023-04-04T18:10:30;11.70;86.50
47514;DHT22;33951;51.988;5.910;2023-04-04T18:13:03;11.70;87.10
47514;DHT22;33951;51.988;5.910;2023-04-04T18:15:29;11.60;87.00
47514;DHT22;33951;51.988;5.910;2023-04-04T18:18:01;11.40;87.20
47514;DHT22;33951;51.988;5.910;2023-04-04T18:20:27;11.40;87.40
47514;DHT22;33951;51.988;5.910;2023-04-04T18:22:56;11.40;87.50
47514;DHT22;33951;51.988;5.910;2023-04-04T18:25:21;11.30;87.90
47514;DHT22;33951;51.988;5.910;2023-04-04T18:27:50;11.20;87.90
47514;DHT22;33951;51.988;5.910;2023-04-04T18:30:16;11.10;88.00
47514;DHT22;33951;51.988;5.910;2023-04-04T18:32:42;11.10;88.50
47514;DHT22;33951;51.988;5.910;2023-04-04T18:35:18;10.90;89.20
47514;DHT22;33951;51.988;5.910;2023-04-04T18:37:53;10.80;89.50
47514;DHT22;33951;51.988;5.910;2023-04-04T18:40:24;10.70;89.50
47514;DHT22;33951;51.988;5.910;2023-04-04T18:42:51;10.70;89.80
47514;DHT22;33951;51.988;5.910;2023-04-04T18:45:23;10.60;90.10
47514;DHT22;33951;51.988;5.910;2023-04-04T18:47:49;10.50;90.30
47514;DHT22;33951;51.988;5.910;2023-04-04T18:50:19;10.50;90.30
47514;DHT22;33951;51.988;5.910;2023-04-04T18:52:47;10.40;90.50
47514;DHT22;33951;51.988;5.910;2023-04-04T18:55:21;10.30;90.60
47514;DHT22;33951;51.988;5.910;2023-04-04T18:57:57;10.20;90.70
47514;DHT22;33951;51.988;5.910;2023-04-04T19:00:23;10.10;90.90
47514;DHT22;33951;51.988;5.910;2023-04-04T19:02:54;10.00;91.00
47514;DHT22;33951;51.988;5.910;2023-04-04T19:05:23;9.90;91.10
47514;DHT22;33951;51.988;5.910;2023-04-04T19:08:00;9.80;91.30
47514;DHT22;33951;51.988;5.910;2023-04-04T19:10:33;9.70;91.50
47514;DHT22;33951;51.988;5.910;2023-04-04T19:13:05;9.60;91.60
47514;DHT22;33951;51.988;5.910;2023-04-04T19:15:34;9.60;91.70
47514;DHT22;33951;51.988;5.910;2023-04-04T19:18:05;9.60;91.70
47514;DHT22;33951;51.988;5.910;2023-04-04T19:20:37;9.50;91.90
47514;DHT22;33951;51.988;5.910;2023-04-04T19:23:06;9.50;92.00
47514;DHT22;33951;51.988;5.910;2023-04-04T19:25:37;9.40;92.10
47514;DHT22;33951;51.988;5.910;2023-04-04T19:28:05;9.30;92.30
47514;DHT22;33951;51.988;5.910;2023-04-04T19:30:45;9.30;92.30
47514;DHT22;33951;51.988;5.910;2023-04-04T19:33:18;9.30;92.30
47514;DHT22;33951;51.988;5.910;2023-04-04T19:35:55;9.30;92.40
47514;DHT22;33951;51.988;5.910;2023-04-04T19:38:26;9.30;92.50
47514;DHT22;33951;51.988;5.910;2023-04-04T19:43:48;9.20;92.40
47514;DHT22;33951;51.988;5.910;2023-04-04T19:46:25;9.10;92.40
47514;DHT22;33951;51.988;5.910;2023-04-04T19:48:58;9.10;92.40
47514;DHT22;33951;51.988;5.910;2023-04-04T19:51:38;9.10;92.30
47514;DHT22;33951;51.988;5.910;2023-04-04T19:54:08;9.00;92.20
47514;DHT22;33951;51.988;5.910;2023-04-04T19:56:35;9.10;92.00
47514;DHT22;33951;51.988;5.910;2023-04-04T19:59:02;9.00;92.10
47514;DHT22;33951;51.988;5.910;2023-04-04T20:01:38;9.00;92.00
47514;DHT22;33951;51.988;5.910;2023-04-04T20:04:10;9.00;91.80
47514;DHT22;33951;51.988;5.910;2023-04-04T20:06:36;8.90;91.50
47514;DHT22;33951;51.988;5.910;2023-04-04T20:09:31;8.80;91.20
47514;DHT22;33951;51.988;5.910;2023-04-04T20:12:13;8.80;91.40
47514;DHT22;33951;51.988;5.910;2023-04-04T20:15:12;8.80;91.30
47514;DHT22;33951;51.988;5.910;2023-04-04T20:17:48;8.80;91.40
47514;DHT22;33951;51.988;5.910;2023-04-04T20:20:52;8.70;91.80
47514;DHT22;33951;51.988;5.910;2023-04-04T20:23:23;8.60;92.60
47514;DHT22;33951;51.988;5.910;2023-04-04T20:25:53;8.40;92.90
47514;DHT22;33951;51.988;5.910;2023-04-04T20:28:39;8.10;93.00
47514;DHT22;33951;51.988;5.910;2023-04-04T20:31:08;8.20;93.40
47514;DHT22;33951;51.988;5.910;2023-04-04T20:33:36;8.30;93.50
47514;DHT22;33951;51.988;5.910;2023-04-04T20:38:49;8.30;93.70
47514;DHT22;33951;51.988;5.910;2023-04-04T20:41:22;8.40;94.10
47514;DHT22;33951;51.988;5.910;2023-04-04T20:46:18;8.30;94.50
47514;DHT22;33951;51.988;5.910;2023-04-04T20:48:49;8.40;94.60
47514;DHT22;33951;51.988;5.910;2023-04-04T20:51:34;8.20;94.80
47514;DHT22;33951;51.988;5.910;2023-04-04T22:13:49;6.70;95.60
47514;DHT22;33951;51.988;5.910;2023-04-04T22:16:25;6.70;95.60
47514;DHT22;33951;51.988;5.910;2023-04-04T22:18:54;6.60;95.90
47514;DHT22;33951;51.988;5.910;2023-04-04T22:21:19;6.50;96.10
47514;DHT22;33951;51.988;5.910;2023-04-04T22:23:57;6.50;96.10
47514;DHT22;33951;51.988;5.910;2023-04-04T22:26:45;6.50;96.00
47514;DHT22;33951;51.988;5.910;2023-04-04T22:29:14;6.40;96.00
47514;DHT22;33951;51.988;5.910;2023-04-04T22:31:42;6.40;96.10
47514;DHT22;33951;51.988;5.910;2023-04-04T22:34:13;6.50;96.20
47514;DHT22;33951;51.988;5.910;2023-04-04T22:36:48;6.50;96.00
47514;DHT22;33951;51.988;5.910;2023-04-04T22:39:24;6.30;96.20
47514;DHT22;33951;51.988;5.910;2023-04-04T22:42:21;6.30;96.40
47514;DHT22;33951;51.988;5.910;2023-04-04T22:45:06;6.30;96.40
47514;DHT22;33951;51.988;5.910;2023-04-04T22:47:34;6.30;96.40
47514;DHT22;33951;51.988;5.910;2023-04-04T22:50:09;6.20;96.40
47514;DHT22;33951;51.988;5.910;2023-04-04T22:52:45;6.00;96.60
47514;DHT22;33951;51.988;5.910;2023-04-04T22:55:18;6.00;96.70
47514;DHT22;33951;51.988;5.910;2023-04-04T22:57:47;6.00;96.70
47514;DHT22;33951;51.988;5.910;2023-04-04T23:00:27;6.00;96.60
47514;DHT22;33951;51.988;5.910;2023-04-04T23:02:53;5.90;96.90
47514;DHT22;33951;51.988;5.910;2023-04-04T23:05:23;5.90;96.90
47514;DHT22;33951;51.988;5.910;2023-04-04T23:07:54;5.90;97.00
47514;DHT22;33951;51.988;5.910;2023-04-04T23:10:22;5.90;97.10
47514;DHT22;33951;51.988;5.910;2023-04-04T23:12:51;5.90;97.20
47514;DHT22;33951;51.988;5.910;2023-04-04T23:15:17;5.80;97.10
47514;DHT22;33951;51.988;5.910;2023-04-04T23:17:43;5.70;97.20
47514;DHT22;33951;51.988;5.910;2023-04-04T23:20:09;5.70;97.30
47514;DHT22;33951;51.988;5.910;2023-04-04T23:22:48;5.60;97.30
47514;DHT22;33951;51.988;5.910;2023-04-04T23:25:17;5.60;97.40
47514;DHT22;33951;51.988;5.910;2023-04-04T23:27:45;5.60;97.50
47514;DHT22;33951;51.988;5.910;2023-04-04T23:30:36;5.60;97.50
47514;DHT22;33951;51.988;5.910;2023-04-04T23:33:07;5.60;97.50
47514;DHT22;33951;51.988;5.910;2023-04-04T23:35:33;5.60;97.60
47514;DHT22;33951;51.988;5.910;2023-04-04T23:38:01;5.50;97.60
47514;DHT22;33951;51.988;5.910;2023-04-04T23:40:29;5.50;97.70
47514;DHT22;33951;51.988;5.910;2023-04-04T23:42:58;5.50;97.80
47514;DHT22;33951;51.988;5.910;2023-04-04T23:45:27;5.60;97.90
47514;DHT22;33951;51.988;5.910;2023-04-04T23:47:57;5.40;98.00
47514;DHT22;33951;51.988;5.910;2023-04-04T23:50:22;5.40;98.00
47514;DHT22;33951;51.988;5.910;2023-04-04T23:52:54;5.40;98.00
47514;DHT22;33951;51.988;5.910;2023-04-04T23:55:26;5.30;98.00
47514;DHT22;33951;51.988;5.910;2023-04-04T23:57:56;5.30;98.00
